createdAt,value
2017-09-22T00:00:39.794Z,54.0
2017-09-22T00:01:41.213Z,53.6
2017-09-22T00:02:42.632Z,53.9
2017-09-22T00:03:44.050Z,53.6
2017-09-22T00:04:45.465Z,53.6
2017-09-22T00:05:46.884Z,53.8
2017-09-22T00:06:48.297Z,53.7
2017-09-22T00:07:49.714Z,53.8
2017-09-22T00:08:51.132Z,53.6
2017-09-22T00:09:52.546Z,54.2
2017-09-22T00:10:53.970Z,54.1
2017-09-22T00:11:55.384Z,53.7
2017-09-22T00:12:56.803Z,53.7
2017-09-22T00:13:58.219Z,54.2
2017-09-22T00:14:59.636Z,53.6
2017-09-22T00:16:01.052Z,54.1
2017-09-22T00:17:02.471Z,54.4
2017-09-22T00:18:03.888Z,53.4
2017-09-22T00:19:05.304Z,54.1
2017-09-22T00:20:06.733Z,54.2
2017-09-22T00:21:08.144Z,54.0
2017-09-22T00:22:09.562Z,54.0
2017-09-22T00:23:10.979Z,53.7
2017-09-22T00:24:12.398Z,54.1
2017-09-22T00:25:13.816Z,54.3
2017-09-22T00:26:15.233Z,54.3
2017-09-22T00:27:16.648Z,54.1
2017-09-22T00:28:18.069Z,54.1
2017-09-22T00:29:19.485Z,54.1
2017-09-22T00:30:20.908Z,54.0
2017-09-22T00:31:22.333Z,53.9
2017-09-22T00:32:23.746Z,54.0
2017-09-22T00:33:25.161Z,53.9
2017-09-22T00:34:26.580Z,53.9
2017-09-22T00:35:27.998Z,54.1
2017-09-22T00:36:29.418Z,53.6
2017-09-22T00:37:30.836Z,54.0
2017-09-22T00:38:32.255Z,53.6
2017-09-22T00:39:33.670Z,53.9
2017-09-22T00:40:35.089Z,54.1
2017-09-22T00:41:36.509Z,54.1
2017-09-22T00:42:37.925Z,54.1
2017-09-22T00:43:39.341Z,54.2
2017-09-22T00:44:40.756Z,53.9
2017-09-22T00:45:42.174Z,54.1
2017-09-22T00:46:43.594Z,54.1
2017-09-22T00:47:45.010Z,54.2
2017-09-22T00:48:46.426Z,54.0
2017-09-22T00:49:47.844Z,54.1
2017-09-22T00:50:49.261Z,54.2
2017-09-22T00:51:50.678Z,54.0
2017-09-22T00:52:52.092Z,54.1
2017-09-22T00:53:53.510Z,54.1
2017-09-22T00:54:54.930Z,54.0
2017-09-22T00:55:56.345Z,54.5
2017-09-22T00:56:57.760Z,54.1
2017-09-22T00:57:59.177Z,54.4
2017-09-22T00:59:00.594Z,54.1
2017-09-22T01:00:02.013Z,54.3
2017-09-22T01:01:03.427Z,54.4
2017-09-22T01:02:04.842Z,54.1
2017-09-22T01:03:06.261Z,54.3
2017-09-22T01:04:07.680Z,54.3
2017-09-22T01:05:09.095Z,54.8
2017-09-22T01:06:10.513Z,54.1
2017-09-22T01:07:11.935Z,54.3
2017-09-22T01:08:13.353Z,54.2
2017-09-22T01:09:14.770Z,54.3
2017-09-22T01:10:16.187Z,54.3
2017-09-22T01:11:17.604Z,54.3
2017-09-22T01:12:19.020Z,54.5
2017-09-22T01:13:20.440Z,54.8
2017-09-22T01:14:21.855Z,54.7
2017-09-22T01:15:23.273Z,54.9
2017-09-22T01:16:24.690Z,54.7
2017-09-22T01:17:26.107Z,54.6
2017-09-22T01:18:27.520Z,54.6
2017-09-22T01:19:28.938Z,54.7
2017-09-22T01:20:30.355Z,54.7
2017-09-22T01:21:31.773Z,54.6
2017-09-22T01:22:33.190Z,54.7
2017-09-22T01:23:34.607Z,54.7
2017-09-22T01:24:36.026Z,54.7
2017-09-22T01:25:37.442Z,54.7
2017-09-22T01:26:38.857Z,54.6
2017-09-22T01:27:40.290Z,54.6
2017-09-22T01:28:41.707Z,54.4
2017-09-22T01:29:43.132Z,54.6
2017-09-22T01:30:44.550Z,54.6
2017-09-22T01:31:45.965Z,54.6
2017-09-22T01:32:47.382Z,54.7
2017-09-22T01:33:48.798Z,54.6
2017-09-22T01:34:50.217Z,55.0
2017-09-22T01:35:51.634Z,54.6
2017-09-22T01:36:53.050Z,54.9
2017-09-22T01:37:54.465Z,54.5
2017-09-22T01:38:55.878Z,55.0
2017-09-22T01:39:57.299Z,55.0
2017-09-22T01:40:58.716Z,55.0
2017-09-22T01:42:00.132Z,54.8
2017-09-22T01:43:01.549Z,55.0
2017-09-22T01:44:02.965Z,55.0
2017-09-22T01:45:04.387Z,54.7
2017-09-22T01:46:05.806Z,54.7
2017-09-22T01:47:07.224Z,54.5
2017-09-22T01:48:08.644Z,54.8
2017-09-22T01:49:10.062Z,54.9
2017-09-22T01:50:11.482Z,54.7
2017-09-22T01:51:12.898Z,54.8
2017-09-22T01:52:14.316Z,54.7
2017-09-22T01:53:15.732Z,54.8
2017-09-22T01:54:17.150Z,54.7
2017-09-22T01:55:18.571Z,55.0
2017-09-22T01:56:19.986Z,55.0
2017-09-22T01:57:21.401Z,54.7
2017-09-22T01:58:22.816Z,54.6
2017-09-22T01:59:24.233Z,54.7
2017-09-22T02:00:25.651Z,54.8
2017-09-22T02:01:27.064Z,54.9
2017-09-22T02:02:28.486Z,54.7
2017-09-22T02:03:29.903Z,54.7
2017-09-22T02:04:31.322Z,55.0
2017-09-22T02:05:32.741Z,54.6
2017-09-22T02:06:34.160Z,54.7
2017-09-22T02:07:35.580Z,54.7
2017-09-22T02:08:36.995Z,54.7
2017-09-22T02:09:38.412Z,54.7
2017-09-22T02:10:39.830Z,54.8
2017-09-22T02:11:41.248Z,54.7
2017-09-22T02:12:42.666Z,55.0
2017-09-22T02:13:44.082Z,54.7
2017-09-22T02:14:45.499Z,55.2
2017-09-22T02:15:46.916Z,54.8
2017-09-22T02:16:48.332Z,54.7
2017-09-22T02:17:49.749Z,54.9
2017-09-22T02:18:51.163Z,54.9
2017-09-22T02:19:52.581Z,55.0
2017-09-22T02:20:53.997Z,55.1
2017-09-22T02:21:55.414Z,55.1
2017-09-22T02:22:56.829Z,55.1
2017-09-22T02:23:58.246Z,55.2
2017-09-22T02:24:59.664Z,54.9
2017-09-22T02:26:01.082Z,55.2
2017-09-22T02:27:02.497Z,55.0
2017-09-22T02:28:03.922Z,55.0
2017-09-22T02:29:05.338Z,55.7
2017-09-22T02:30:06.755Z,55.2
2017-09-22T02:31:08.170Z,55.3
2017-09-22T02:32:09.588Z,55.1
2017-09-22T02:33:11.007Z,55.7
2017-09-22T02:34:12.423Z,55.2
2017-09-22T02:35:13.840Z,55.8
2017-09-22T02:36:15.293Z,55.2
2017-09-22T02:37:16.672Z,55.1
2017-09-22T02:38:18.089Z,55.7
2017-09-22T02:39:19.507Z,55.1
2017-09-22T02:40:20.922Z,55.9
2017-09-22T02:41:22.339Z,55.2
2017-09-22T02:42:23.755Z,55.1
2017-09-22T02:43:25.175Z,55.2
2017-09-22T02:44:26.591Z,55.9
2017-09-22T02:45:28.040Z,55.9
2017-09-22T02:46:29.426Z,55.7
2017-09-22T02:47:30.843Z,55.1
2017-09-22T02:48:32.259Z,55.2
2017-09-22T02:49:33.680Z,55.6
2017-09-22T02:50:35.096Z,55.9
2017-09-22T02:51:36.518Z,55.6
2017-09-22T02:52:37.933Z,55.7
2017-09-22T02:53:39.351Z,55.3
2017-09-22T02:54:40.768Z,55.6
2017-09-22T02:55:42.184Z,55.7
2017-09-22T02:56:43.600Z,55.4
2017-09-22T02:57:45.017Z,55.4
2017-09-22T02:58:46.433Z,55.4
2017-09-22T02:59:47.851Z,55.3
2017-09-22T03:00:49.269Z,55.7
2017-09-22T03:01:50.683Z,55.4
2017-09-22T03:02:52.102Z,55.7
2017-09-22T03:03:53.518Z,55.2
2017-09-22T03:04:54.936Z,55.7
2017-09-22T03:05:56.352Z,55.5
2017-09-22T03:06:57.769Z,55.2
2017-09-22T03:07:59.188Z,55.4
2017-09-22T03:09:00.605Z,55.6
2017-09-22T03:10:02.022Z,55.2
2017-09-22T03:11:03.440Z,55.7
2017-09-22T03:12:04.859Z,55.6
2017-09-22T03:13:06.278Z,55.7
2017-09-22T03:14:07.706Z,55.3
2017-09-22T03:15:09.125Z,55.2
2017-09-22T03:16:10.543Z,55.7
2017-09-22T03:17:11.957Z,55.4
2017-09-22T03:18:13.377Z,55.4
2017-09-22T03:19:14.791Z,55.4
2017-09-22T03:20:16.211Z,55.4
2017-09-22T03:21:17.624Z,55.5
2017-09-22T03:22:19.042Z,55.7
2017-09-22T03:23:20.457Z,55.8
2017-09-22T03:24:21.876Z,55.7
2017-09-22T03:25:23.292Z,55.5
2017-09-22T03:26:24.712Z,55.5
2017-09-22T03:27:26.133Z,55.5
2017-09-22T03:28:27.550Z,55.6
2017-09-22T03:29:28.974Z,55.7
2017-09-22T03:30:30.385Z,55.9
2017-09-22T03:31:31.802Z,55.5
2017-09-22T03:32:33.220Z,55.5
2017-09-22T03:33:34.639Z,55.5
2017-09-22T03:34:36.060Z,55.8
2017-09-22T03:35:37.470Z,55.6
2017-09-22T03:36:38.886Z,55.6
2017-09-22T03:37:40.299Z,55.6
2017-09-22T03:38:41.716Z,55.7
2017-09-22T03:39:43.132Z,56.1
2017-09-22T03:40:44.548Z,56.1
2017-09-22T03:41:45.965Z,56.0
2017-09-22T03:42:47.380Z,55.6
2017-09-22T03:43:48.833Z,55.8
2017-09-22T03:44:50.220Z,56.1
2017-09-22T03:45:51.640Z,55.8
2017-09-22T03:46:53.058Z,56.1
2017-09-22T03:47:54.476Z,55.9
2017-09-22T03:48:55.895Z,56.2
2017-09-22T03:49:57.308Z,55.9
2017-09-22T03:50:58.724Z,56.2
2017-09-22T03:52:00.141Z,56.1
2017-09-22T03:53:01.560Z,55.9
2017-09-22T03:54:02.982Z,56.2
2017-09-22T03:55:04.395Z,55.9
2017-09-22T03:56:05.812Z,56.2
2017-09-22T03:57:07.228Z,56.0
2017-09-22T03:58:08.656Z,55.9
2017-09-22T03:59:10.060Z,55.9
2017-09-22T04:00:11.477Z,56.4
2017-09-22T04:01:13.033Z,56.2
2017-09-22T04:02:14.469Z,56.3
2017-09-22T04:03:15.886Z,56.1
2017-09-22T04:04:17.305Z,56.1
2017-09-22T04:05:18.718Z,55.9
2017-09-22T04:06:20.134Z,56.1
2017-09-22T04:07:21.550Z,56.1
2017-09-22T04:08:22.968Z,55.9
2017-09-22T04:09:24.382Z,55.8
2017-09-22T04:10:25.797Z,55.8
2017-09-22T04:11:27.218Z,56.1
2017-09-22T04:12:28.633Z,55.9
2017-09-22T04:13:30.051Z,55.7
2017-09-22T04:14:31.469Z,56.2
2017-09-22T04:15:32.886Z,56.2
2017-09-22T04:16:34.304Z,55.9
2017-09-22T04:17:35.724Z,56.1
2017-09-22T04:18:37.156Z,56.0
2017-09-22T04:19:38.569Z,55.7
2017-09-22T04:20:39.985Z,56.1
2017-09-22T04:21:41.404Z,56.2
2017-09-22T04:22:42.839Z,56.3
2017-09-22T04:23:44.255Z,56.0
2017-09-22T04:24:45.674Z,56.2
2017-09-22T04:25:47.088Z,56.0
2017-09-22T04:26:48.506Z,55.9
2017-09-22T04:27:49.929Z,56.1
2017-09-22T04:28:51.347Z,56.0
2017-09-22T04:29:52.762Z,56.1
2017-09-22T04:30:54.178Z,55.9
2017-09-22T04:31:55.592Z,55.8
2017-09-22T04:32:57.011Z,56.0
2017-09-22T04:33:58.428Z,56.0
2017-09-22T04:34:59.844Z,56.2
2017-09-22T04:36:01.260Z,56.0
2017-09-22T04:37:02.692Z,56.1
2017-09-22T04:38:04.093Z,56.0
2017-09-22T04:39:05.519Z,56.1
2017-09-22T04:40:06.938Z,56.4
2017-09-22T04:41:08.355Z,56.2
2017-09-22T04:42:09.771Z,56.3
2017-09-22T04:43:11.187Z,56.5
2017-09-22T04:44:12.643Z,56.3
2017-09-22T04:45:14.060Z,56.0
2017-09-22T04:46:15.476Z,56.0
2017-09-22T04:47:16.891Z,56.2
2017-09-22T04:48:18.313Z,56.5
2017-09-22T04:49:19.730Z,56.3
2017-09-22T04:50:21.147Z,56.3
2017-09-22T04:51:22.565Z,56.3
2017-09-22T04:52:23.984Z,55.9
2017-09-22T04:53:25.396Z,56.3
2017-09-22T04:54:26.811Z,56.3
2017-09-22T04:55:28.235Z,56.4
2017-09-22T04:56:29.646Z,56.3
2017-09-22T04:57:31.068Z,56.1
2017-09-22T04:58:32.498Z,56.1
2017-09-22T04:59:33.916Z,56.2
2017-09-22T05:00:35.333Z,56.1
2017-09-22T05:01:36.752Z,56.0
2017-09-22T05:02:38.170Z,56.4
2017-09-22T05:03:39.585Z,56.3
2017-09-22T05:04:41.001Z,56.4
2017-09-22T05:05:42.417Z,56.5
2017-09-22T05:06:43.834Z,56.4
2017-09-22T05:07:45.256Z,56.2
2017-09-22T05:08:46.677Z,56.6
2017-09-22T05:09:48.101Z,56.1
2017-09-22T05:10:49.518Z,56.1
2017-09-22T05:11:50.934Z,56.0
2017-09-22T05:12:52.349Z,56.3
2017-09-22T05:13:53.765Z,56.5
2017-09-22T05:14:55.181Z,56.1
2017-09-22T05:15:56.604Z,56.3
2017-09-22T05:16:58.031Z,56.4
2017-09-22T05:17:59.441Z,56.3
2017-09-22T05:19:00.860Z,56.1
2017-09-22T05:20:02.277Z,56.3
2017-09-22T05:21:03.693Z,56.1
2017-09-22T05:22:05.117Z,56.2
2017-09-22T05:23:06.531Z,56.2
2017-09-22T05:24:07.950Z,56.4
2017-09-22T05:25:09.369Z,56.3
2017-09-22T05:26:10.780Z,56.3
2017-09-22T05:27:12.198Z,56.3
2017-09-22T05:28:13.619Z,56.3
2017-09-22T05:29:15.035Z,56.7
2017-09-22T05:30:16.454Z,56.3
2017-09-22T05:31:17.868Z,56.5
2017-09-22T05:32:19.284Z,56.7
2017-09-22T05:33:20.704Z,56.2
2017-09-22T05:34:22.118Z,56.6
2017-09-22T05:35:23.536Z,56.0
2017-09-22T05:36:24.952Z,56.5
2017-09-22T05:37:26.369Z,56.4
2017-09-22T05:38:27.820Z,56.5
2017-09-22T05:39:29.207Z,56.3
2017-09-22T05:40:30.620Z,56.1
2017-09-22T05:41:32.040Z,56.5
2017-09-22T05:42:33.461Z,56.4
2017-09-22T05:43:34.878Z,56.6
2017-09-22T05:44:36.293Z,56.2
2017-09-22T05:45:37.717Z,56.5
2017-09-22T05:46:39.167Z,56.4
2017-09-22T05:47:40.585Z,56.2
2017-09-22T05:48:42.001Z,56.2
2017-09-22T05:49:43.425Z,56.3
2017-09-22T05:50:44.845Z,56.4
2017-09-22T05:51:46.258Z,56.3
2017-09-22T05:52:47.677Z,56.2
2017-09-22T05:53:49.093Z,56.6
2017-09-22T05:54:50.510Z,56.3
2017-09-22T05:55:51.931Z,56.0
2017-09-22T05:56:53.349Z,56.1
2017-09-22T05:57:54.770Z,56.3
2017-09-22T05:58:56.187Z,56.3
2017-09-22T05:59:57.605Z,56.4
2017-09-22T06:00:59.026Z,56.2
2017-09-22T06:02:00.455Z,56.3
2017-09-22T06:03:01.873Z,56.4
2017-09-22T06:04:03.285Z,56.2
2017-09-22T06:05:04.710Z,56.3
2017-09-22T06:06:06.127Z,56.1
2017-09-22T06:07:07.547Z,56.3
2017-09-22T06:08:08.971Z,56.3
2017-09-22T06:09:10.401Z,56.1
2017-09-22T06:10:11.796Z,56.1
2017-09-22T06:11:13.215Z,56.3
2017-09-22T06:12:14.633Z,56.3
2017-09-22T06:13:16.051Z,56.2
2017-09-22T06:14:17.469Z,56.2
2017-09-22T06:15:18.888Z,56.1
2017-09-22T06:16:20.303Z,56.3
2017-09-22T06:17:21.720Z,56.2
2017-09-22T06:18:23.139Z,56.2
2017-09-22T06:19:24.558Z,56.3
2017-09-22T06:20:25.985Z,56.1
2017-09-22T06:21:27.406Z,56.1
2017-09-22T06:22:28.824Z,56.4
2017-09-22T06:23:30.244Z,56.1
2017-09-22T06:24:31.657Z,56.2
2017-09-22T06:25:33.077Z,56.3
2017-09-22T06:26:34.494Z,56.1
2017-09-22T06:27:35.914Z,56.1
2017-09-22T06:28:37.333Z,56.2
2017-09-22T06:29:38.753Z,56.4
2017-09-22T06:30:40.171Z,56.1
2017-09-22T06:31:41.591Z,56.4
2017-09-22T06:32:43.010Z,56.3
2017-09-22T06:33:44.431Z,56.4
2017-09-22T06:34:45.876Z,56.2
2017-09-22T06:35:47.263Z,56.4
2017-09-22T06:36:48.680Z,56.2
2017-09-22T06:37:50.096Z,56.2
2017-09-22T06:38:51.516Z,56.4
2017-09-22T06:39:52.935Z,56.4
2017-09-22T06:40:54.355Z,56.5
2017-09-22T06:41:55.773Z,56.4
2017-09-22T06:42:57.205Z,56.4
2017-09-22T06:43:58.654Z,56.1
2017-09-22T06:45:00.071Z,56.2
2017-09-22T06:46:01.488Z,56.1
2017-09-22T06:47:02.907Z,56.0
2017-09-22T06:48:04.325Z,56.1
2017-09-22T06:49:05.744Z,56.2
2017-09-22T06:50:07.160Z,56.1
2017-09-22T06:51:08.579Z,56.1
2017-09-22T06:52:09.997Z,55.8
2017-09-22T06:53:11.421Z,56.2
2017-09-22T06:54:12.841Z,56.3
2017-09-22T06:55:14.259Z,56.0
2017-09-22T06:56:15.676Z,55.9
2017-09-22T06:57:17.095Z,56.3
2017-09-22T06:58:18.513Z,56.0
2017-09-22T06:59:19.930Z,56.0
2017-09-22T07:00:21.346Z,56.2
2017-09-22T07:01:22.766Z,56.1
2017-09-22T07:02:24.185Z,56.4
2017-09-22T07:03:25.602Z,56.3
2017-09-22T07:04:27.017Z,56.2
2017-09-22T07:05:28.435Z,55.9
2017-09-22T07:06:29.854Z,56.1
2017-09-22T07:07:31.273Z,56.3
2017-09-22T07:08:32.692Z,56.3
2017-09-22T07:09:34.111Z,56.2
2017-09-22T07:10:35.528Z,56.1
2017-09-22T07:11:36.958Z,56.1
2017-09-22T07:12:38.374Z,56.1
2017-09-22T07:13:39.796Z,55.9
2017-09-22T07:14:41.220Z,55.8
2017-09-22T07:15:42.639Z,56.3
2017-09-22T07:16:44.057Z,56.2
2017-09-22T07:17:45.475Z,56.2
2017-09-22T07:18:46.894Z,56.1
2017-09-22T07:19:48.309Z,56.1
2017-09-22T07:20:49.729Z,56.2
2017-09-22T07:21:51.146Z,56.2
2017-09-22T07:22:52.562Z,56.1
2017-09-22T07:23:53.979Z,56.2
2017-09-22T07:24:55.398Z,56.1
2017-09-22T07:25:56.815Z,55.9
2017-09-22T07:26:58.232Z,56.2
2017-09-22T07:27:59.653Z,56.1
2017-09-22T07:29:01.071Z,56.0
2017-09-22T07:30:02.492Z,56.0
2017-09-22T07:31:03.909Z,56.0
2017-09-22T07:32:05.330Z,56.1
2017-09-22T07:33:06.746Z,56.1
2017-09-22T07:34:08.165Z,56.0
2017-09-22T07:35:09.583Z,55.7
2017-09-22T07:36:10.997Z,56.1
2017-09-22T07:37:12.415Z,55.8
2017-09-22T07:38:13.832Z,55.8
2017-09-22T07:39:15.261Z,56.2
2017-09-22T07:40:16.680Z,55.8
2017-09-22T07:41:18.099Z,55.8
2017-09-22T07:42:19.515Z,56.1
2017-09-22T07:43:20.932Z,56.2
2017-09-22T07:44:22.350Z,55.8
2017-09-22T07:45:23.770Z,56.3
2017-09-22T07:46:25.187Z,55.9
2017-09-22T07:47:26.607Z,56.0
2017-09-22T07:48:28.025Z,56.3
2017-09-22T07:49:29.441Z,56.1
2017-09-22T07:50:30.856Z,56.1
2017-09-22T07:51:32.279Z,56.2
2017-09-22T07:52:33.697Z,56.1
2017-09-22T07:53:35.116Z,56.2
2017-09-22T07:54:36.537Z,55.8
2017-09-22T07:55:37.957Z,56.1
2017-09-22T07:56:39.374Z,55.8
2017-09-22T07:57:40.790Z,55.5
2017-09-22T07:58:42.207Z,55.6
2017-09-22T07:59:43.631Z,55.6
2017-09-22T08:00:45.047Z,55.6
2017-09-22T08:01:46.474Z,55.9
2017-09-22T08:02:47.901Z,55.9
2017-09-22T08:03:49.320Z,55.6
2017-09-22T08:04:50.737Z,55.7
2017-09-22T08:05:52.168Z,55.7
2017-09-22T08:06:53.586Z,55.5
2017-09-22T08:07:55.005Z,55.9
2017-09-22T08:08:56.421Z,55.7
2017-09-22T08:09:57.844Z,55.4
2017-09-22T08:10:59.272Z,55.8
2017-09-22T08:12:00.690Z,55.9
2017-09-22T08:13:02.109Z,55.5
2017-09-22T08:14:03.529Z,55.7
2017-09-22T08:15:04.952Z,55.5
2017-09-22T08:16:06.375Z,55.7
2017-09-22T08:17:07.796Z,55.6
2017-09-22T08:18:09.215Z,55.7
2017-09-22T08:19:10.642Z,55.9
2017-09-22T08:20:12.048Z,55.4
2017-09-22T08:21:13.464Z,55.4
2017-09-22T08:22:14.884Z,55.7
2017-09-22T08:23:16.294Z,55.8
2017-09-22T08:24:17.722Z,55.5
2017-09-22T08:25:19.142Z,55.7
2017-09-22T08:26:20.560Z,55.3
2017-09-22T08:27:21.983Z,55.4
2017-09-22T08:28:23.402Z,55.5
2017-09-22T08:29:24.822Z,55.5
2017-09-22T08:30:26.238Z,55.7
2017-09-22T08:31:27.655Z,55.7
2017-09-22T08:32:29.081Z,55.7
2017-09-22T08:33:30.489Z,55.5
2017-09-22T08:34:31.937Z,55.7
2017-09-22T08:35:33.360Z,55.4
2017-09-22T08:36:34.791Z,55.2
2017-09-22T08:37:36.208Z,55.7
2017-09-22T08:38:37.641Z,55.3
2017-09-22T08:39:39.077Z,55.2
2017-09-22T08:40:40.499Z,55.7
2017-09-22T08:41:41.908Z,55.7
2017-09-22T08:42:43.330Z,55.2
2017-09-22T08:43:44.748Z,54.9
2017-09-22T08:44:46.171Z,54.8
2017-09-22T08:45:47.589Z,55.1
2017-09-22T08:46:49.014Z,55.1
2017-09-22T08:47:50.436Z,55.4
2017-09-22T08:48:51.855Z,54.7
2017-09-22T08:49:53.272Z,55.2
2017-09-22T08:50:54.687Z,55.6
2017-09-22T08:51:56.109Z,54.9
2017-09-22T08:52:57.529Z,55.1
2017-09-22T08:53:58.947Z,54.8
2017-09-22T08:55:00.368Z,55.0
2017-09-22T08:56:01.789Z,55.1
2017-09-22T08:57:03.211Z,54.9
2017-09-22T08:58:04.637Z,54.9
2017-09-22T08:59:06.050Z,54.8
2017-09-22T09:00:07.468Z,54.8
2017-09-22T09:01:08.888Z,54.9
2017-09-22T09:02:10.304Z,55.0
2017-09-22T09:03:11.721Z,55.0
2017-09-22T09:04:13.140Z,54.5
2017-09-22T09:05:14.558Z,54.7
2017-09-22T09:06:16.003Z,54.6
2017-09-22T09:07:17.412Z,54.5
2017-09-22T09:08:18.832Z,54.9
2017-09-22T09:09:20.252Z,55.0
2017-09-22T09:10:21.669Z,54.4
2017-09-22T09:11:23.090Z,54.9
2017-09-22T09:12:24.504Z,54.9
2017-09-22T09:13:25.925Z,54.9
2017-09-22T09:14:27.346Z,54.6
2017-09-22T09:15:28.774Z,54.6
2017-09-22T09:16:30.195Z,55.0
2017-09-22T09:17:31.616Z,54.8
2017-09-22T09:18:33.035Z,54.8
2017-09-22T09:19:34.452Z,54.6
2017-09-22T09:20:35.873Z,54.9
2017-09-22T09:21:37.294Z,54.6
2017-09-22T09:22:38.715Z,54.4
2017-09-22T09:23:40.132Z,54.5
2017-09-22T09:24:41.549Z,54.4
2017-09-22T09:25:42.977Z,54.5
2017-09-22T09:26:44.395Z,54.9
2017-09-22T09:27:45.813Z,54.3
2017-09-22T09:28:47.230Z,54.5
2017-09-22T09:29:48.649Z,54.8
2017-09-22T09:30:50.067Z,54.7
2017-09-22T09:31:51.500Z,54.5
2017-09-22T09:32:52.923Z,54.5
2017-09-22T09:33:54.341Z,54.5
2017-09-22T09:34:55.758Z,54.7
2017-09-22T09:35:57.174Z,54.5
2017-09-22T09:36:58.593Z,54.6
2017-09-22T09:38:00.011Z,54.6
2017-09-22T09:39:01.430Z,54.4
2017-09-22T09:40:02.865Z,54.7
2017-09-22T09:41:04.280Z,54.7
2017-09-22T09:42:05.700Z,54.7
2017-09-22T09:43:07.120Z,54.6
2017-09-22T09:44:08.551Z,54.6
2017-09-22T09:45:09.961Z,54.5
2017-09-22T09:46:11.378Z,54.6
2017-09-22T09:47:12.803Z,54.8
2017-09-22T09:48:14.216Z,54.7
2017-09-22T09:49:15.635Z,54.9
2017-09-22T09:50:17.057Z,54.5
2017-09-22T09:51:18.478Z,54.2
2017-09-22T09:52:19.898Z,54.2
2017-09-22T09:53:21.316Z,54.4
2017-09-22T09:54:22.738Z,54.2
2017-09-22T09:55:24.157Z,54.4
2017-09-22T09:56:25.576Z,54.0
2017-09-22T09:57:26.995Z,54.0
2017-09-22T09:58:28.414Z,54.3
2017-09-22T09:59:29.834Z,54.2
2017-09-22T10:00:31.256Z,54.2
2017-09-22T10:01:32.677Z,54.1
2017-09-22T10:02:34.095Z,54.0
2017-09-22T10:03:35.515Z,54.2
2017-09-22T10:04:36.935Z,54.1
2017-09-22T10:05:38.355Z,54.2
2017-09-22T10:06:39.779Z,54.1
2017-09-22T10:07:41.199Z,53.9
2017-09-22T10:08:42.621Z,53.9
2017-09-22T10:09:44.045Z,54.0
2017-09-22T10:10:45.465Z,53.9
2017-09-22T10:11:46.886Z,54.3
2017-09-22T10:12:48.308Z,54.1
2017-09-22T10:13:49.739Z,53.8
2017-09-22T10:14:51.159Z,54.2
2017-09-22T10:15:52.579Z,54.2
2017-09-22T10:16:53.999Z,53.7
2017-09-22T10:17:55.437Z,53.7
2017-09-22T10:18:56.896Z,53.7
2017-09-22T10:19:58.276Z,53.8
2017-09-22T10:20:59.697Z,53.9
2017-09-22T10:22:01.117Z,53.6
2017-09-22T10:23:02.539Z,53.7
2017-09-22T10:24:03.955Z,53.7
2017-09-22T10:25:05.375Z,53.8
2017-09-22T10:26:06.795Z,53.8
2017-09-22T10:27:08.231Z,53.7
2017-09-22T10:28:09.651Z,54.1
2017-09-22T10:29:11.072Z,54.5
2017-09-22T10:30:12.492Z,54.3
2017-09-22T10:31:13.914Z,54.7
2017-09-22T10:32:15.336Z,54.5
2017-09-22T10:33:16.756Z,54.7
2017-09-22T10:34:18.177Z,54.8
2017-09-22T10:35:19.591Z,54.5
2017-09-22T10:36:21.013Z,54.5
2017-09-22T10:37:22.436Z,54.4
2017-09-22T10:38:23.868Z,54.6
2017-09-22T10:39:25.288Z,54.4
2017-09-22T10:40:26.711Z,54.7
2017-09-22T10:41:28.129Z,54.6
2017-09-22T10:42:29.551Z,54.5
2017-09-22T10:43:30.973Z,54.3
2017-09-22T10:44:32.395Z,54.5
2017-09-22T10:45:33.817Z,54.5
2017-09-22T10:46:35.244Z,54.9
2017-09-22T10:47:36.663Z,55.0
2017-09-22T10:48:38.085Z,54.6
2017-09-22T10:49:39.505Z,54.3
2017-09-22T10:50:40.926Z,54.2
2017-09-22T10:51:42.346Z,55.1
2017-09-22T10:52:43.767Z,54.3
2017-09-22T10:53:45.191Z,54.1
2017-09-22T10:54:46.614Z,54.3
2017-09-22T10:55:48.036Z,54.2
2017-09-22T10:56:49.457Z,54.3
2017-09-22T10:57:50.873Z,54.0
2017-09-22T10:58:52.319Z,54.1
2017-09-22T10:59:53.742Z,53.9
2017-09-22T11:00:55.163Z,54.2
2017-09-22T11:01:56.584Z,54.0
2017-09-22T11:02:58.004Z,54.4
2017-09-22T11:03:59.428Z,53.5
2017-09-22T11:05:00.847Z,53.7
2017-09-22T11:06:02.270Z,53.7
2017-09-22T11:07:03.695Z,53.8
2017-09-22T11:08:05.115Z,53.6
2017-09-22T11:09:06.540Z,54.1
2017-09-22T11:10:07.962Z,53.6
2017-09-22T11:11:09.383Z,53.8
2017-09-22T11:12:10.806Z,53.8
2017-09-22T11:13:12.224Z,53.9
2017-09-22T11:14:13.644Z,53.9
2017-09-22T11:15:15.068Z,54.0
2017-09-22T11:16:16.490Z,53.3
2017-09-22T11:17:17.909Z,54.1
2017-09-22T11:18:19.331Z,53.2
2017-09-22T11:19:20.760Z,53.4
2017-09-22T11:20:22.181Z,53.4
2017-09-22T11:21:23.602Z,53.3
2017-09-22T11:22:25.023Z,53.2
2017-09-22T11:23:26.474Z,53.4
2017-09-22T11:24:27.892Z,53.1
2017-09-22T11:25:29.319Z,53.4
2017-09-22T11:26:30.739Z,53.4
2017-09-22T11:27:32.189Z,53.4
2017-09-22T11:28:33.614Z,53.3
2017-09-22T11:29:35.034Z,53.0
2017-09-22T11:30:36.472Z,53.4
2017-09-22T11:31:37.875Z,53.5
2017-09-22T11:32:39.297Z,52.5
2017-09-22T11:33:40.720Z,52.8
2017-09-22T11:34:42.143Z,52.9
2017-09-22T11:35:43.577Z,52.9
2017-09-22T11:36:44.995Z,52.6
2017-09-22T11:37:46.418Z,52.9
2017-09-22T11:38:47.847Z,53.0
2017-09-22T11:39:49.319Z,52.7
2017-09-22T11:40:50.745Z,52.8
2017-09-22T11:41:52.165Z,52.3
2017-09-22T11:42:53.588Z,52.7
2017-09-22T11:43:55.020Z,52.9
2017-09-22T11:44:56.441Z,52.7
2017-09-22T11:45:57.864Z,52.7
2017-09-22T11:46:59.286Z,52.4
2017-09-22T11:48:00.711Z,52.5
2017-09-22T11:49:02.133Z,52.4
2017-09-22T11:50:03.557Z,52.2
2017-09-22T11:51:04.978Z,52.2
2017-09-22T11:52:06.400Z,52.2
2017-09-22T11:53:07.832Z,52.0
2017-09-22T11:54:09.244Z,52.0
2017-09-22T11:55:10.666Z,52.1
2017-09-22T11:56:12.089Z,51.8
2017-09-22T11:57:13.517Z,52.2
2017-09-22T11:58:14.951Z,52.0
2017-09-22T11:59:16.420Z,51.8
2017-09-22T12:00:17.841Z,52.1
2017-09-22T12:01:19.267Z,51.8
2017-09-22T12:02:20.770Z,51.9
2017-09-22T12:03:22.195Z,51.8
2017-09-22T12:04:23.652Z,51.8
2017-09-22T12:05:25.074Z,51.7
2017-09-22T12:06:26.495Z,51.8
2017-09-22T12:07:27.918Z,51.5
2017-09-22T12:08:29.340Z,52.0
2017-09-22T12:09:30.766Z,51.8
2017-09-22T12:10:32.190Z,52.1
2017-09-22T12:11:33.708Z,51.6
2017-09-22T12:12:35.129Z,51.2
2017-09-22T12:13:36.550Z,51.2
2017-09-22T12:14:37.975Z,51.4
2017-09-22T12:15:39.396Z,51.5
2017-09-22T12:16:40.821Z,51.5
2017-09-22T12:17:42.244Z,51.4
2017-09-22T12:18:43.725Z,51.0
2017-09-22T12:19:45.894Z,50.9
2017-09-22T12:20:47.319Z,51.0
2017-09-22T12:21:48.744Z,51.3
2017-09-22T12:22:50.164Z,51.0
2017-09-22T12:23:51.597Z,51.2
2017-09-22T12:24:53.022Z,51.5
2017-09-22T12:25:54.438Z,51.9
2017-09-22T12:26:55.866Z,51.5
2017-09-22T12:27:57.292Z,51.3
2017-09-22T12:28:58.710Z,50.7
2017-09-22T12:30:00.135Z,51.0
2017-09-22T12:31:01.556Z,51.0
2017-09-22T12:32:02.979Z,50.9
2017-09-22T12:33:04.401Z,51.0
2017-09-22T12:34:05.822Z,51.7
2017-09-22T12:35:07.242Z,51.6
2017-09-22T12:36:08.667Z,51.6
2017-09-22T12:37:10.091Z,51.6
2017-09-22T12:38:11.516Z,51.3
2017-09-22T12:39:12.951Z,51.3
2017-09-22T12:40:14.360Z,51.0
2017-09-22T12:41:15.781Z,51.3
2017-09-22T12:42:17.204Z,51.3
2017-09-22T12:43:18.629Z,51.8
2017-09-22T12:44:20.047Z,51.6
2017-09-22T12:45:21.469Z,51.3
2017-09-22T12:46:22.898Z,50.9
2017-09-22T12:47:24.311Z,51.0
2017-09-22T12:48:25.740Z,51.1
2017-09-22T12:49:27.164Z,50.8
2017-09-22T12:50:28.585Z,50.9
2017-09-22T12:51:30.009Z,50.6
2017-09-22T12:52:31.430Z,51.0
2017-09-22T12:53:32.852Z,50.9
2017-09-22T12:54:34.273Z,50.7
2017-09-22T12:55:35.693Z,50.5
2017-09-22T12:56:37.118Z,50.7
2017-09-22T12:57:38.545Z,50.6
2017-09-22T12:58:39.986Z,50.4
2017-09-22T12:59:41.409Z,50.5
2017-09-22T13:00:42.841Z,50.3
2017-09-22T13:01:44.304Z,50.3
2017-09-22T13:02:45.722Z,50.2
2017-09-22T13:03:47.147Z,50.3
2017-09-22T13:04:48.570Z,50.5
2017-09-22T13:05:49.991Z,50.2
2017-09-22T13:06:51.420Z,50.3
2017-09-22T13:07:52.838Z,50.1
2017-09-22T13:08:54.261Z,49.7
2017-09-22T13:09:55.703Z,50.3
2017-09-22T13:10:57.124Z,50.4
2017-09-22T13:11:58.544Z,50.5
2017-09-22T13:12:59.969Z,50.3
2017-09-22T13:14:01.390Z,50.5
2017-09-22T13:15:02.810Z,50.0
2017-09-22T13:16:04.228Z,49.7
2017-09-22T13:17:05.669Z,49.8
2017-09-22T13:18:07.090Z,49.7
2017-09-22T13:19:08.514Z,49.7
2017-09-22T13:20:09.937Z,50.1
2017-09-22T13:21:11.368Z,49.6
2017-09-22T13:22:12.785Z,49.7
2017-09-22T13:23:14.207Z,49.4
2017-09-22T13:24:15.639Z,49.4
2017-09-22T13:25:17.060Z,49.6
2017-09-22T13:26:18.483Z,49.7
2017-09-22T13:27:19.905Z,49.6
2017-09-22T13:28:21.324Z,49.8
2017-09-22T13:29:22.748Z,49.9
2017-09-22T13:30:24.185Z,49.9
2017-09-22T13:31:25.610Z,49.8
2017-09-22T13:32:27.041Z,49.9
2017-09-22T13:33:28.451Z,49.9
2017-09-22T13:34:29.876Z,49.7
2017-09-22T13:35:31.302Z,49.8
2017-09-22T13:36:32.728Z,49.7
2017-09-22T13:37:34.148Z,50.1